sensor_id;sensor_type;location;lat;lon;timestamp;pressure;altitude;pressure_sealevel;temperature;humidity
28701;BME280;15877;52.344;16.790;2023-02-14T00:01:58;102639.55;;;8.26;67.88
28701;BME280;15877;52.344;16.790;2023-02-14T00:04:31;102637.95;;;8.20;68.25
28701;BME280;15877;52.344;16.790;2023-02-14T00:07:04;102621.95;;;8.22;67.90
28701;BME280;15877;52.344;16.790;2023-02-14T00:09:37;102640.12;;;8.30;67.62
28701;BME280;15877;52.344;16.790;2023-02-14T00:12:10;102633.54;;;8.18;67.99
28701;BME280;15877;52.344;16.790;2023-02-14T00:14:43;102637.58;;;8.19;68.11
28701;BME280;15877;52.344;16.790;2023-02-14T00:17:33;102643.95;;;8.25;67.91
28701;BME280;15877;52.344;16.790;2023-02-14T00:20:08;102644.92;;;8.27;67.80
28701;BME280;15877;52.344;16.790;2023-02-14T00:22:41;102642.95;;;8.12;68.32
28701;BME280;15877;52.344;16.790;2023-02-14T00:25:15;102642.68;;;8.17;68.32
28701;BME280;15877;52.344;16.790;2023-02-14T00:27:48;102643.18;;;8.17;68.25
28701;BME280;15877;52.344;16.790;2023-02-14T00:30:21;102635.38;;;8.16;68.39
28701;BME280;15877;52.344;16.790;2023-02-14T00:32:54;102637.36;;;8.12;68.67
28701;BME280;15877;52.344;16.790;2023-02-14T00:35:26;102601.23;;;7.95;68.51
28701;BME280;15877;52.344;16.790;2023-02-14T00:37:59;102637.88;;;8.12;68.70
28701;BME280;15877;52.344;16.790;2023-02-14T00:40:32;102636.73;;;8.18;68.58
28701;BME280;15877;52.344;16.790;2023-02-14T00:43:04;102635.62;;;8.27;68.12
28701;BME280;15877;52.344;16.790;2023-02-14T00:45:38;102637.21;;;8.22;68.19
28701;BME280;15877;52.344;16.790;2023-02-14T00:48:11;102634.64;;;8.10;68.57
28701;BME280;15877;52.344;16.790;2023-02-14T00:50:45;102636.95;;;8.09;68.71
28701;BME280;15877;52.344;16.790;2023-02-14T00:53:20;102629.71;;;8.04;68.66
28701;BME280;15877;52.344;16.790;2023-02-14T00:55:53;102629.61;;;8.08;68.30
28701;BME280;15877;52.344;16.790;2023-02-14T00:58:26;102647.75;;;8.20;68.26
28701;BME280;15877;52.344;16.790;2023-02-14T01:00:58;102649.16;;;8.22;68.11
28701;BME280;15877;52.344;16.790;2023-02-14T01:03:32;102648.71;;;8.13;68.56
28701;BME280;15877;52.344;16.790;2023-02-14T01:06:06;102650.43;;;8.13;68.58
28701;BME280;15877;52.344;16.790;2023-02-14T01:08:38;102651.21;;;8.07;68.83
28701;BME280;15877;52.344;16.790;2023-02-14T01:11:13;102655.31;;;8.17;68.53
28701;BME280;15877;52.344;16.790;2023-02-14T01:13:47;102655.15;;;8.22;68.42
28701;BME280;15877;52.344;16.790;2023-02-14T01:16:22;102657.41;;;8.30;68.08
28701;BME280;15877;52.344;16.790;2023-02-14T01:18:59;102656.86;;;8.28;68.05
28701;BME280;15877;52.344;16.790;2023-02-14T01:21:33;102651.70;;;8.25;68.09
28701;BME280;15877;52.344;16.790;2023-02-14T01:24:07;102651.05;;;8.23;68.15
28701;BME280;15877;52.344;16.790;2023-02-14T01:26:41;102649.52;;;8.20;68.18
28701;BME280;15877;52.344;16.790;2023-02-14T01:29:14;102649.44;;;8.17;68.28
28701;BME280;15877;52.344;16.790;2023-02-14T01:31:47;102642.58;;;8.17;68.31
28701;BME280;15877;52.344;16.790;2023-02-14T01:34:22;102637.30;;;8.19;68.40
28701;BME280;15877;52.344;16.790;2023-02-14T01:36:55;102631.52;;;8.16;68.37
28701;BME280;15877;52.344;16.790;2023-02-14T01:39:28;102631.98;;;8.13;68.57
28701;BME280;15877;52.344;16.790;2023-02-14T01:42:01;102632.45;;;8.16;68.46
28701;BME280;15877;52.344;16.790;2023-02-14T01:44:55;102633.94;;;8.16;68.45
28701;BME280;15877;52.344;16.790;2023-02-14T01:47:31;102626.63;;;8.12;68.48
28701;BME280;15877;52.344;16.790;2023-02-14T01:50:09;102626.63;;;8.17;68.45
28701;BME280;15877;52.344;16.790;2023-02-14T01:52:46;102623.70;;;8.15;68.45
28701;BME280;15877;52.344;16.790;2023-02-14T01:55:25;102627.48;;;8.10;68.54
28701;BME280;15877;52.344;16.790;2023-02-14T01:58:03;102629.34;;;8.07;68.71
28701;BME280;15877;52.344;16.790;2023-02-14T02:00:37;102630.42;;;8.10;68.69
28701;BME280;15877;52.344;16.790;2023-02-14T02:03:33;102628.04;;;8.14;68.45
28701;BME280;15877;52.344;16.790;2023-02-14T02:06:10;102625.92;;;8.11;68.41
28701;BME280;15877;52.344;16.790;2023-02-14T02:08:51;102629.25;;;8.10;68.70
28701;BME280;15877;52.344;16.790;2023-02-14T02:11:28;102628.49;;;8.14;68.55
28701;BME280;15877;52.344;16.790;2023-02-14T02:14:00;102626.70;;;8.12;68.50
28701;BME280;15877;52.344;16.790;2023-02-14T02:22:54;102614.86;;;8.10;68.82
28701;BME280;15877;52.344;16.790;2023-02-14T02:25:42;102618.85;;;8.09;68.77
28701;BME280;15877;52.344;16.790;2023-02-14T02:28:43;102614.06;;;8.12;68.67
28701;BME280;15877;52.344;16.790;2023-02-14T02:31:36;102609.11;;;8.09;68.89
28701;BME280;15877;52.344;16.790;2023-02-14T02:37:36;102615.32;;;7.98;69.11
28701;BME280;15877;52.344;16.790;2023-02-14T02:40:25;102608.88;;;8.05;69.02
28701;BME280;15877;52.344;16.790;2023-02-14T02:43:06;102611.70;;;8.10;68.69
28701;BME280;15877;52.344;16.790;2023-02-14T02:45:48;102610.25;;;8.11;68.79
28701;BME280;15877;52.344;16.790;2023-02-14T02:48:49;102611.50;;;8.09;68.89
28701;BME280;15877;52.344;16.790;2023-02-14T02:51:34;102609.04;;;8.07;69.03
28701;BME280;15877;52.344;16.790;2023-02-14T02:54:32;102605.48;;;8.07;68.96
28701;BME280;15877;52.344;16.790;2023-02-14T02:57:11;102608.94;;;8.10;69.03
28701;BME280;15877;52.344;16.790;2023-02-14T02:59:45;102608.04;;;8.15;68.74
28701;BME280;15877;52.344;16.790;2023-02-14T03:02:20;102601.77;;;8.11;68.99
28701;BME280;15877;52.344;16.790;2023-02-14T03:04:56;102599.48;;;8.13;68.94
28701;BME280;15877;52.344;16.790;2023-02-14T03:07:35;102593.19;;;8.11;69.04
28701;BME280;15877;52.344;16.790;2023-02-14T03:10:13;102593.97;;;8.02;69.08
28701;BME280;15877;52.344;16.790;2023-02-14T03:13:15;102588.11;;;8.01;69.09
28701;BME280;15877;52.344;16.790;2023-02-14T03:16:14;102600.81;;;8.08;69.10
28701;BME280;15877;52.344;16.790;2023-02-14T03:19:11;102584.48;;;7.95;69.08
28701;BME280;15877;52.344;16.790;2023-02-14T03:21:59;102601.23;;;8.06;69.31
28701;BME280;15877;52.344;16.790;2023-02-14T03:24:40;102603.19;;;8.09;69.13
28701;BME280;15877;52.344;16.790;2023-02-14T03:27:17;102604.99;;;8.01;69.30
28701;BME280;15877;52.344;16.790;2023-02-14T03:29:59;102608.57;;;8.12;69.04
28701;BME280;15877;52.344;16.790;2023-02-14T03:32:40;102611.55;;;8.08;69.11
28701;BME280;15877;52.344;16.790;2023-02-14T03:35:21;102612.48;;;8.00;69.32
28701;BME280;15877;52.344;16.790;2023-02-14T03:37:59;102615.74;;;8.10;69.03
28701;BME280;15877;52.344;16.790;2023-02-14T03:40:37;102619.34;;;8.05;69.09
28701;BME280;15877;52.344;16.790;2023-02-14T03:43:16;102618.65;;;7.94;69.52
28701;BME280;15877;52.344;16.790;2023-02-14T03:45:53;102616.13;;;7.91;69.84
28701;BME280;15877;52.344;16.790;2023-02-14T03:48:29;102622.70;;;7.97;69.56
28701;BME280;15877;52.344;16.790;2023-02-14T03:51:05;102624.24;;;7.93;69.69
28701;BME280;15877;52.344;16.790;2023-02-14T03:53:43;102624.27;;;7.91;69.72
28701;BME280;15877;52.344;16.790;2023-02-14T03:56:24;102626.20;;;7.80;70.27
28701;BME280;15877;52.344;16.790;2023-02-14T03:59:02;102624.67;;;7.84;70.06
28701;BME280;15877;52.344;16.790;2023-02-14T04:01:41;102622.23;;;7.79;70.27
28701;BME280;15877;52.344;16.790;2023-02-14T04:04:20;102617.98;;;7.82;70.18
28701;BME280;15877;52.344;16.790;2023-02-14T04:06:54;102615.55;;;7.78;70.31
28701;BME280;15877;52.344;16.790;2023-02-14T04:09:27;102611.25;;;7.81;70.28
28701;BME280;15877;52.344;16.790;2023-02-14T04:12:00;102603.85;;;7.79;70.21
28701;BME280;15877;52.344;16.790;2023-02-14T04:14:33;102603.02;;;7.74;70.50
28701;BME280;15877;52.344;16.790;2023-02-14T04:17:07;102613.28;;;7.71;70.73
28701;BME280;15877;52.344;16.790;2023-02-14T04:19:58;102616.07;;;7.70;70.75
28701;BME280;15877;52.344;16.790;2023-02-14T04:22:30;102618.16;;;7.78;70.71
28701;BME280;15877;52.344;16.790;2023-02-14T04:25:05;102621.07;;;7.90;70.23
28701;BME280;15877;52.344;16.790;2023-02-14T04:27:38;102623.48;;;7.82;70.44
28701;BME280;15877;52.344;16.790;2023-02-14T04:30:13;102613.42;;;7.79;70.33
28701;BME280;15877;52.344;16.790;2023-02-14T04:32:49;102614.42;;;7.74;70.42
28701;BME280;15877;52.344;16.790;2023-02-14T04:35:23;102622.50;;;7.75;70.52
28701;BME280;15877;52.344;16.790;2023-02-14T04:37:56;102624.00;;;7.69;70.96
28701;BME280;15877;52.344;16.790;2023-02-14T04:40:29;102624.16;;;7.79;70.71
28701;BME280;15877;52.344;16.790;2023-02-14T04:43:02;102624.06;;;7.83;70.51
28701;BME280;15877;52.344;16.790;2023-02-14T04:45:35;102624.29;;;7.73;70.53
28701;BME280;15877;52.344;16.790;2023-02-14T04:48:08;102623.03;;;7.65;70.87
28701;BME280;15877;52.344;16.790;2023-02-14T04:50:41;102618.50;;;7.59;71.11
28701;BME280;15877;52.344;16.790;2023-02-14T04:53:13;102616.52;;;7.64;71.25
28701;BME280;15877;52.344;16.790;2023-02-14T04:55:48;102617.63;;;7.63;71.12
28701;BME280;15877;52.344;16.790;2023-02-14T04:58:22;102619.27;;;7.66;71.09
28701;BME280;15877;52.344;16.790;2023-02-14T05:00:54;102614.77;;;7.68;70.98
28701;BME280;15877;52.344;16.790;2023-02-14T05:03:27;102613.48;;;7.59;71.15
28701;BME280;15877;52.344;16.790;2023-02-14T05:06:00;102594.66;;;7.53;71.12
28701;BME280;15877;52.344;16.790;2023-02-14T05:08:32;102604.09;;;7.61;71.23
28701;BME280;15877;52.344;16.790;2023-02-14T05:11:05;102602.45;;;7.66;71.02
28701;BME280;15877;52.344;16.790;2023-02-14T05:13:38;102612.83;;;7.69;70.84
28701;BME280;15877;52.344;16.790;2023-02-14T05:16:10;102612.85;;;7.66;71.03
28701;BME280;15877;52.344;16.790;2023-02-14T05:18:43;102609.90;;;7.67;71.13
28701;BME280;15877;52.344;16.790;2023-02-14T05:21:16;102614.58;;;7.75;70.89
28701;BME280;15877;52.344;16.790;2023-02-14T05:23:49;102608.76;;;7.76;70.74
28701;BME280;15877;52.344;16.790;2023-02-14T05:26:21;102615.08;;;7.76;70.67
28701;BME280;15877;52.344;16.790;2023-02-14T05:28:54;102610.19;;;7.77;70.68
28701;BME280;15877;52.344;16.790;2023-02-14T05:31:26;102613.75;;;7.80;70.67
28701;BME280;15877;52.344;16.790;2023-02-14T05:33:59;102614.40;;;7.71;70.82
28701;BME280;15877;52.344;16.790;2023-02-14T05:36:33;102617.29;;;7.59;71.14
28701;BME280;15877;52.344;16.790;2023-02-14T05:39:06;102616.52;;;7.53;71.59
28701;BME280;15877;52.344;16.790;2023-02-14T05:41:39;102617.56;;;7.65;71.17
28701;BME280;15877;52.344;16.790;2023-02-14T05:44:11;102621.91;;;7.66;70.98
28701;BME280;15877;52.344;16.790;2023-02-14T05:46:44;102630.17;;;7.60;71.36
28701;BME280;15877;52.344;16.790;2023-02-14T05:49:18;102623.69;;;7.66;71.05
28701;BME280;15877;52.344;16.790;2023-02-14T05:51:50;102619.33;;;7.65;70.98
28701;BME280;15877;52.344;16.790;2023-02-14T05:54:23;102624.27;;;7.70;70.93
28701;BME280;15877;52.344;16.790;2023-02-14T05:56:55;102627.91;;;7.69;71.06
28701;BME280;15877;52.344;16.790;2023-02-14T05:59:28;102622.35;;;7.63;71.20
28701;BME280;15877;52.344;16.790;2023-02-14T06:02:01;102625.89;;;7.67;71.16
28701;BME280;15877;52.344;16.790;2023-02-14T06:04:34;102624.51;;;7.68;71.07
28701;BME280;15877;52.344;16.790;2023-02-14T06:07:07;102630.41;;;7.74;70.85
28701;BME280;15877;52.344;16.790;2023-02-14T06:09:39;102635.27;;;7.75;70.75
28701;BME280;15877;52.344;16.790;2023-02-14T06:12:12;102636.77;;;7.82;70.55
28701;BME280;15877;52.344;16.790;2023-02-14T06:14:47;102639.95;;;7.83;70.53
28701;BME280;15877;52.344;16.790;2023-02-14T06:17:20;102642.16;;;7.83;70.43
28701;BME280;15877;52.344;16.790;2023-02-14T06:19:58;102644.50;;;7.78;70.42
28701;BME280;15877;52.344;16.790;2023-02-14T06:22:31;102647.82;;;7.77;70.60
28701;BME280;15877;52.344;16.790;2023-02-14T06:25:04;102647.59;;;7.84;70.48
28701;BME280;15877;52.344;16.790;2023-02-14T06:27:38;102650.75;;;7.84;70.23
28701;BME280;15877;52.344;16.790;2023-02-14T06:30:17;102652.67;;;7.80;70.49
28701;BME280;15877;52.344;16.790;2023-02-14T06:32:50;102651.46;;;7.72;70.57
28701;BME280;15877;52.344;16.790;2023-02-14T06:35:23;102654.61;;;7.73;70.76
28701;BME280;15877;52.344;16.790;2023-02-14T06:37:57;102651.61;;;7.74;70.67
28701;BME280;15877;52.344;16.790;2023-02-14T06:40:30;102647.56;;;7.75;70.75
28701;BME280;15877;52.344;16.790;2023-02-14T06:43:04;102636.15;;;7.71;70.45
28701;BME280;15877;52.344;16.790;2023-02-14T06:45:38;102655.36;;;7.76;70.54
28701;BME280;15877;52.344;16.790;2023-02-14T06:48:14;102654.41;;;7.64;70.89
28701;BME280;15877;52.344;16.790;2023-02-14T06:50:48;102651.91;;;7.66;71.08
28701;BME280;15877;52.344;16.790;2023-02-14T06:53:23;102647.84;;;7.70;70.97
28701;BME280;15877;52.344;16.790;2023-02-14T06:55:56;102663.20;;;7.77;70.78
28701;BME280;15877;52.344;16.790;2023-02-14T06:58:30;102660.71;;;7.77;70.69
28701;BME280;15877;52.344;16.790;2023-02-14T07:01:20;102659.34;;;7.76;70.59
28701;BME280;15877;52.344;16.790;2023-02-14T07:03:53;102663.32;;;7.71;70.78
28701;BME280;15877;52.344;16.790;2023-02-14T07:06:26;102660.61;;;7.76;70.61
28701;BME280;15877;52.344;16.790;2023-02-14T07:08:59;102668.02;;;7.82;70.40
28701;BME280;15877;52.344;16.790;2023-02-14T07:11:32;102677.05;;;7.64;71.10
28701;BME280;15877;52.344;16.790;2023-02-14T07:14:04;102671.77;;;7.67;71.19
28701;BME280;15877;52.344;16.790;2023-02-14T07:16:37;102662.04;;;7.66;70.86
28701;BME280;15877;52.344;16.790;2023-02-14T07:19:11;102676.00;;;7.76;70.72
28701;BME280;15877;52.344;16.790;2023-02-14T07:21:43;102679.46;;;7.73;70.76
28701;BME280;15877;52.344;16.790;2023-02-14T07:24:16;102674.27;;;7.67;71.01
28701;BME280;15877;52.344;16.790;2023-02-14T07:26:49;102677.02;;;7.80;70.77
28701;BME280;15877;52.344;16.790;2023-02-14T07:29:22;102680.59;;;7.77;70.78
28701;BME280;15877;52.344;16.790;2023-02-14T07:31:54;102679.86;;;7.83;70.70
28701;BME280;15877;52.344;16.790;2023-02-14T07:34:28;102682.20;;;7.82;70.49
28701;BME280;15877;52.344;16.790;2023-02-14T07:37:01;102690.48;;;7.89;70.54
28701;BME280;15877;52.344;16.790;2023-02-14T07:39:33;102689.48;;;7.85;70.62
28701;BME280;15877;52.344;16.790;2023-02-14T07:42:06;102689.64;;;7.86;70.50
28701;BME280;15877;52.344;16.790;2023-02-14T07:44:40;102689.55;;;7.95;70.41
28701;BME280;15877;52.344;16.790;2023-02-14T07:47:14;102692.27;;;7.99;70.24
28701;BME280;15877;52.344;16.790;2023-02-14T07:49:47;102689.92;;;8.00;70.16
28701;BME280;15877;52.344;16.790;2023-02-14T07:52:20;102694.33;;;7.93;70.17
28701;BME280;15877;52.344;16.790;2023-02-14T07:54:53;102692.62;;;7.92;70.32
28701;BME280;15877;52.344;16.790;2023-02-14T07:57:25;102693.81;;;7.99;70.29
28701;BME280;15877;52.344;16.790;2023-02-14T07:59:58;102695.36;;;8.06;70.11
28701;BME280;15877;52.344;16.790;2023-02-14T08:02:31;102695.21;;;8.09;70.05
28701;BME280;15877;52.344;16.790;2023-02-14T08:05:04;102689.48;;;8.17;69.88
28701;BME280;15877;52.344;16.790;2023-02-14T08:07:37;102689.90;;;8.19;69.60
28701;BME280;15877;52.344;16.790;2023-02-14T08:10:11;102689.34;;;8.20;69.35
28701;BME280;15877;52.344;16.790;2023-02-14T08:12:44;102691.52;;;8.26;69.19
28701;BME280;15877;52.344;16.790;2023-02-14T08:15:33;102691.56;;;8.32;68.89
28701;BME280;15877;52.344;16.790;2023-02-14T08:18:24;102685.64;;;8.31;69.05
28701;BME280;15877;52.344;16.790;2023-02-14T08:20:57;102686.08;;;8.42;68.66
28701;BME280;15877;52.344;16.790;2023-02-14T08:23:31;102694.47;;;8.40;68.57
28701;BME280;15877;52.344;16.790;2023-02-14T08:26:04;102697.53;;;8.38;68.76
28701;BME280;15877;52.344;16.790;2023-02-14T08:28:37;102678.73;;;8.24;68.27
28701;BME280;15877;52.344;16.790;2023-02-14T08:31:10;102686.08;;;8.26;68.43
28701;BME280;15877;52.344;16.790;2023-02-14T08:33:44;102711.66;;;8.41;68.34
28701;BME280;15877;52.344;16.790;2023-02-14T08:36:16;102713.60;;;8.43;68.12
28701;BME280;15877;52.344;16.790;2023-02-14T08:38:49;102709.80;;;8.45;68.30
28701;BME280;15877;52.344;16.790;2023-02-14T08:41:22;102706.73;;;8.51;68.05
28701;BME280;15877;52.344;16.790;2023-02-14T08:43:55;102710.54;;;8.58;68.03
28701;BME280;15877;52.344;16.790;2023-02-14T08:46:28;102715.90;;;8.62;68.23
28701;BME280;15877;52.344;16.790;2023-02-14T08:49:01;102694.79;;;8.58;67.68
28701;BME280;15877;52.344;16.790;2023-02-14T08:51:34;102703.15;;;8.68;67.58
28701;BME280;15877;52.344;16.790;2023-02-14T08:54:07;102707.79;;;8.74;67.46
28701;BME280;15877;52.344;16.790;2023-02-14T08:56:39;102718.02;;;8.84;66.80
28701;BME280;15877;52.344;16.790;2023-02-14T08:59:12;102717.14;;;8.80;66.49
28701;BME280;15877;52.344;16.790;2023-02-14T09:01:44;102716.09;;;8.83;66.91
28701;BME280;15877;52.344;16.790;2023-02-14T09:04:17;102720.02;;;8.96;66.69
28701;BME280;15877;52.344;16.790;2023-02-14T09:06:50;102720.98;;;8.94;66.24
28701;BME280;15877;52.344;16.790;2023-02-14T09:09:23;102724.92;;;8.90;66.50
28701;BME280;15877;52.344;16.790;2023-02-14T09:11:56;102725.16;;;8.93;66.39
28701;BME280;15877;52.344;16.790;2023-02-14T09:14:29;102721.81;;;8.91;66.35
28701;BME280;15877;52.344;16.790;2023-02-14T09:17:02;102732.09;;;8.94;66.45
28701;BME280;15877;52.344;16.790;2023-02-14T09:19:37;102729.67;;;8.99;66.23
28701;BME280;15877;52.344;16.790;2023-02-14T09:22:11;102731.30;;;8.99;65.69
28701;BME280;15877;52.344;16.790;2023-02-14T09:24:44;102736.31;;;8.97;66.07
28701;BME280;15877;52.344;16.790;2023-02-14T09:27:18;102730.95;;;9.04;65.60
28701;BME280;15877;52.344;16.790;2023-02-14T09:29:50;102732.70;;;9.08;65.83
28701;BME280;15877;52.344;16.790;2023-02-14T09:32:24;102714.95;;;9.09;65.43
28701;BME280;15877;52.344;16.790;2023-02-14T09:34:57;102733.48;;;9.21;65.45
28701;BME280;15877;52.344;16.790;2023-02-14T09:37:31;102730.88;;;9.16;65.46
28701;BME280;15877;52.344;16.790;2023-02-14T09:40:21;102728.59;;;9.25;65.72
28701;BME280;15877;52.344;16.790;2023-02-14T09:43:00;102726.73;;;9.36;65.27
28701;BME280;15877;52.344;16.790;2023-02-14T09:45:36;102729.66;;;9.35;65.50
28701;BME280;15877;52.344;16.790;2023-02-14T09:48:09;102737.77;;;9.46;65.20
28701;BME280;15877;52.344;16.790;2023-02-14T09:50:47;102733.64;;;9.54;64.47
28701;BME280;15877;52.344;16.790;2023-02-14T09:53:25;102729.60;;;9.53;64.48
28701;BME280;15877;52.344;16.790;2023-02-14T09:56:06;102722.98;;;9.57;64.45
28701;BME280;15877;52.344;16.790;2023-02-14T09:58:48;102723.20;;;9.54;64.45
28701;BME280;15877;52.344;16.790;2023-02-14T10:01:27;102725.13;;;9.55;64.33
28701;BME280;15877;52.344;16.790;2023-02-14T10:04:15;102716.88;;;9.50;64.26
28701;BME280;15877;52.344;16.790;2023-02-14T10:06:56;102720.39;;;9.66;64.15
28701;BME280;15877;52.344;16.790;2023-02-14T10:09:53;102722.04;;;9.61;64.44
28701;BME280;15877;52.344;16.790;2023-02-14T10:12:33;102719.27;;;9.57;63.29
28701;BME280;15877;52.344;16.790;2023-02-14T10:15:14;102716.71;;;9.54;63.53
28701;BME280;15877;52.344;16.790;2023-02-14T10:17:50;102717.92;;;9.65;62.36
28701;BME280;15877;52.344;16.790;2023-02-14T10:20:28;102711.95;;;9.73;61.46
28701;BME280;15877;52.344;16.790;2023-02-14T10:23:08;102709.62;;;9.76;61.13
28701;BME280;15877;52.344;16.790;2023-02-14T10:25:47;102713.45;;;9.83;61.02
28701;BME280;15877;52.344;16.790;2023-02-14T10:28:28;102711.58;;;9.79;61.22
28701;BME280;15877;52.344;16.790;2023-02-14T10:31:13;102704.77;;;9.81;61.23
28701;BME280;15877;52.344;16.790;2023-02-14T10:33:53;102708.73;;;9.90;61.08
28701;BME280;15877;52.344;16.790;2023-02-14T10:36:45;102699.58;;;9.92;60.46
28701;BME280;15877;52.344;16.790;2023-02-14T10:39:41;102697.70;;;10.01;60.86
28701;BME280;15877;52.344;16.790;2023-02-14T10:42:27;102700.94;;;10.03;60.69
28701;BME280;15877;52.344;16.790;2023-02-14T10:45:08;102703.38;;;10.07;60.39
28701;BME280;15877;52.344;16.790;2023-02-14T10:47:48;102688.59;;;9.99;60.32
28701;BME280;15877;52.344;16.790;2023-02-14T10:50:28;102704.98;;;10.12;60.72
28701;BME280;15877;52.344;16.790;2023-02-14T10:53:11;102698.29;;;10.16;60.29
28701;BME280;15877;52.344;16.790;2023-02-14T10:55:51;102698.59;;;10.18;59.57
28701;BME280;15877;52.344;16.790;2023-02-14T10:58:30;102701.01;;;10.16;59.97
28701;BME280;15877;52.344;16.790;2023-02-14T11:01:06;102699.46;;;10.18;60.33
28701;BME280;15877;52.344;16.790;2023-02-14T11:03:45;102698.70;;;10.17;59.67
28701;BME280;15877;52.344;16.790;2023-02-14T11:06:23;102689.01;;;10.25;59.24
28701;BME280;15877;52.344;16.790;2023-02-14T11:08:55;102688.04;;;10.26;59.61
28701;BME280;15877;52.344;16.790;2023-02-14T11:11:34;102695.48;;;10.31;59.55
28701;BME280;15877;52.344;16.790;2023-02-14T11:14:22;102695.42;;;10.37;58.79
28701;BME280;15877;52.344;16.790;2023-02-14T11:16:55;102698.48;;;10.35;58.80
28701;BME280;15877;52.344;16.790;2023-02-14T11:19:30;102685.62;;;10.35;58.97
28701;BME280;15877;52.344;16.790;2023-02-14T11:22:07;102688.92;;;10.37;59.19
28701;BME280;15877;52.344;16.790;2023-02-14T11:24:40;102682.27;;;10.39;58.97
28701;BME280;15877;52.344;16.790;2023-02-14T11:27:18;102678.98;;;10.31;58.61
28701;BME280;15877;52.344;16.790;2023-02-14T11:29:52;102674.38;;;10.31;59.14
28701;BME280;15877;52.344;16.790;2023-02-14T11:32:26;102675.02;;;10.34;59.69
28701;BME280;15877;52.344;16.790;2023-02-14T11:35:03;102675.16;;;10.36;58.87
28701;BME280;15877;52.344;16.790;2023-02-14T11:37:41;102675.40;;;10.30;59.18
28701;BME280;15877;52.344;16.790;2023-02-14T11:40:27;102665.31;;;10.31;59.30
28701;BME280;15877;52.344;16.790;2023-02-14T11:43:16;102674.50;;;10.29;59.44
28701;BME280;15877;52.344;16.790;2023-02-14T11:45:50;102675.52;;;10.26;59.16
28701;BME280;15877;52.344;16.790;2023-02-14T11:48:35;102667.50;;;10.13;59.52
28701;BME280;15877;52.344;16.790;2023-02-14T11:51:11;102662.77;;;10.16;59.91
28701;BME280;15877;52.344;16.790;2023-02-14T11:53:48;102666.34;;;10.16;60.02
28701;BME280;15877;52.344;16.790;2023-02-14T11:56:22;102655.98;;;10.17;59.95
28701;BME280;15877;52.344;16.790;2023-02-14T11:58:57;102657.67;;;10.21;60.33
28701;BME280;15877;52.344;16.790;2023-02-14T12:01:35;102654.73;;;10.24;60.17
28701;BME280;15877;52.344;16.790;2023-02-14T12:04:16;102650.08;;;10.31;60.32
28701;BME280;15877;52.344;16.790;2023-02-14T12:06:50;102652.59;;;10.36;59.55
28701;BME280;15877;52.344;16.790;2023-02-14T12:09:28;102654.08;;;10.31;59.36
28701;BME280;15877;52.344;16.790;2023-02-14T12:12:03;102644.88;;;10.28;60.14
28701;BME280;15877;52.344;16.790;2023-02-14T12:14:36;102648.01;;;10.30;60.30
28701;BME280;15877;52.344;16.790;2023-02-14T12:17:17;102646.30;;;10.33;60.25
28701;BME280;15877;52.344;16.790;2023-02-14T12:19:57;102647.14;;;10.34;59.62
28701;BME280;15877;52.344;16.790;2023-02-14T12:22:36;102646.13;;;10.32;59.24
28701;BME280;15877;52.344;16.790;2023-02-14T12:25:13;102648.39;;;10.32;58.85
28701;BME280;15877;52.344;16.790;2023-02-14T12:27:49;102652.78;;;10.27;58.52
28701;BME280;15877;52.344;16.790;2023-02-14T12:30:30;102654.76;;;10.26;58.64
28701;BME280;15877;52.344;16.790;2023-02-14T12:33:08;102651.20;;;10.29;58.65
28701;BME280;15877;52.344;16.790;2023-02-14T12:35:54;102648.72;;;10.27;58.54
28701;BME280;15877;52.344;16.790;2023-02-14T12:38:40;102645.48;;;10.23;58.57
28701;BME280;15877;52.344;16.790;2023-02-14T12:41:28;102645.05;;;10.17;58.91
28701;BME280;15877;52.344;16.790;2023-02-14T12:44:07;102643.39;;;10.16;58.69
28701;BME280;15877;52.344;16.790;2023-02-14T12:47:07;102639.35;;;10.26;58.23
28701;BME280;15877;52.344;16.790;2023-02-14T12:50:02;102627.66;;;10.21;58.63
28701;BME280;15877;52.344;16.790;2023-02-14T12:53:03;102633.12;;;10.21;58.40
28701;BME280;15877;52.344;16.790;2023-02-14T12:55:48;102630.75;;;10.23;57.96
28701;BME280;15877;52.344;16.790;2023-02-14T12:58:33;102629.04;;;10.23;58.21
28701;BME280;15877;52.344;16.790;2023-02-14T13:01:19;102625.80;;;10.18;58.18
28701;BME280;15877;52.344;16.790;2023-02-14T13:07:35;102614.64;;;10.06;58.45
28701;BME280;15877;52.344;16.790;2023-02-14T13:10:21;102622.55;;;10.16;58.59
28701;BME280;15877;52.344;16.790;2023-02-14T13:13:01;102621.66;;;10.13;58.66
28701;BME280;15877;52.344;16.790;2023-02-14T13:15:43;102624.51;;;10.16;58.77
28701;BME280;15877;52.344;16.790;2023-02-14T13:18:23;102625.71;;;10.14;59.07
28701;BME280;15877;52.344;16.790;2023-02-14T13:21:04;102609.49;;;10.02;58.91
28701;BME280;15877;52.344;16.790;2023-02-14T13:23:40;102626.83;;;10.04;59.44
28701;BME280;15877;52.344;16.790;2023-02-14T13:26:16;102624.40;;;10.13;59.71
28701;BME280;15877;52.344;16.790;2023-02-14T13:28:50;102626.44;;;10.16;59.08
28701;BME280;15877;52.344;16.790;2023-02-14T13:31:24;102624.52;;;10.21;58.58
28701;BME280;15877;52.344;16.790;2023-02-14T13:34:02;102620.28;;;10.27;58.08
28701;BME280;15877;52.344;16.790;2023-02-14T13:36:39;102622.73;;;10.17;57.98
28701;BME280;15877;52.344;16.790;2023-02-14T13:39:20;102626.19;;;10.18;57.66
28701;BME280;15877;52.344;16.790;2023-02-14T13:41:56;102624.27;;;10.22;57.44
28701;BME280;15877;52.344;16.790;2023-02-14T13:44:45;102606.60;;;10.02;57.75
28701;BME280;15877;52.344;16.790;2023-02-14T13:47:20;102622.76;;;10.11;58.57
28701;BME280;15877;52.344;16.790;2023-02-14T13:49:56;102622.25;;;10.13;58.12
28701;BME280;15877;52.344;16.790;2023-02-14T13:52:46;102622.54;;;10.11;58.65